Home > Products > Valid Products > TAF

000
FTUS46 KSEW 210500
TAFOLM
TAF
KOLM 210524Z 2106/2206 00000KT P6SM FEW200
     FM211000 20006KT P6SM OVC006
     FM211800 24009KT P6SM VCSH SCT025 BKN040=



000
FTUS46 KSEW 210500
TAFBLI
TAF
KBLI 210524Z 2106/2206 18004KT P6SM SKC
     FM211200 19003KT P6SM SCT030 BKN080 OVC200
     FM211800 18010KT P6SM VCSH SCT030 OVC050=



000
FTUS46 KSEW 210500
TAFCLM
TAF
KCLM 210524Z 2106/2206 26010KT P6SM SKC
     FM211000 27010KT P6SM OVC008
     FM212100 28015G25KT P6SM VCSH BKN018 OVC035=



000
FTUS46 KSEW 210500
TAFHQM
TAF
KHQM 210524Z 2106/2206 24005KT P6SM SCT010
      TEMPO 2107/2109 BKN010
     FM210900 28005KT P6SM OVC007
     FM212000 26016G24KT P6SM VCSH OVC025=



000
FTUS46 KSEW 210500
TAFBFI
TAF
KBFI 210524Z 2106/2206 00000KT P6SM FEW200
     FM211300 17005KT P6SM SCT008
      TEMPO 2113/2116 BKN008
     FM211700 20008KT P6SM VCSH SCT025 BKN045=



000
FTUS46 KSEW 210500
TAFPAE
TAF
KPAE 210524Z 2106/2206 02008KT P6SM SKC
     FM211200 19005KT P6SM BKN003
      TEMPO 2112/2116 2SM BR OVC003
     FM211700 21008KT P6SM VCSH SCT020 OVC035
     FM212200 32006KT P6SM -SHRA BKN020 OVC030=



000
FTUS46 KSEW 210500
TAFSEA
TAF
KSEA 210524Z 2106/2212 02007KT P6SM FEW200
     FM211300 20007KT P6SM SCT005
      TEMPO 2113/2116 BKN005
     FM211700 22010KT P6SM VCSH SCT022 BKN040
     FM220000 24014KT P6SM VCSH SCT020 BKN040
     FM220600 20012KT P6SM VCSH SCT015 OVC030=



000
FTUS46 KSEW 210200 AAA
TAFSEA
TAF AMD
KSEA 210252Z 2103/2206 34007KT P6SM FEW200
     FM211300 20007KT P6SM SCT005
      TEMPO 2113/2116 BKN005
     FM211700 22010KT P6SM VCSH SCT022 BKN040
     FM220000 24014KT P6SM VCSH SCT020 BKN040=



000
FTUS46 KSEW 210100 AAA
TAFHQM
TAF AMD
KHQM 210127Z 2101/2124 25011KT 6SM HZ SKC
     FM210500 26008KT P6SM SCT010
      TEMPO 2105/2108 BKN010
     FM210900 28005KT P6SM OVC007
     FM212000 26016G24KT P6SM VCSH OVC025=



000
FTUS46 KSEW 210100 AAA
TAFHQM
TAF AMD
KHQM 210127Z 2101/2124 25011KT 6SM HZ SKC
     FM210500 26008KT P6SM SCT010
      TEMPO 2105/2108 BKN010
     FM210900 28005KT P6SM OVC007
     FM212000 26016G24KT P6SM VCSH OVC025=



000
FTUS46 KSEW 202300
TAFHQM
TAF
KHQM 202330Z 2100/2124 25011KT P6SM SKC
     FM210300 26010KT P6SM BKN008
      TEMPO 2103/2107 SCT008
     FM210700 28008KT P6SM OVC008
     FM212000 26016G24KT P6SM VCSH OVC025=



000
FTUS46 KSEW 202300
TAFOLM
TAF
KOLM 202330Z 2100/2124 36005KT P6SM SKC
     FM210600 00000KT P6SM SCT250
     FM211100 20006KT P6SM OVC006
     FM211800 24009KT P6SM VCSH SCT025 BKN040=



000
FTUS46 KSEW 202300
TAFBLI
TAF
KBLI 202330Z 2100/2124 VRB04KT P6SM SKC
     FM211200 17003KT P6SM SCT030 BKN080 OVC200
     FM211800 18010KT P6SM VCSH SCT030 OVC050=



000
FTUS46 KSEW 202300
TAFSEA
TAF
KSEA 202330Z 2100/2206 31007KT P6SM FEW080
     FM211300 20007KT P6SM SCT005
      TEMPO 2113/2116 BKN005
     FM211700 22010KT P6SM VCSH SCT022 BKN040
     FM220000 24014KT P6SM VCSH SCT020 BKN040=



000
FTUS46 KSEW 202300
TAFPAE
TAF
KPAE 202330Z 2100/2124 01006KT P6SM SKC
     FM210400 02003KT P6SM SKC
     FM211200 19005KT P6SM BKN003
      TEMPO 2112/2116 2SM BR OVC003
     FM211700 21008KT P6SM VCSH SCT020 OVC035
     FM212200 32006KT P6SM -SHRA BKN020 OVC030=



000
FTUS46 KSEW 202300
TAFBFI
TAF
KBFI 202330Z 2100/2124 31007KT P6SM SKC
     FM211300 17005KT P6SM SCT008
      TEMPO 2113/2116 BKN008
     FM211700 20008KT P6SM VCSH SCT025 BKN045=



000
FTUS46 KSEW 202300
TAFCLM
TAF
KCLM 202330Z 2100/2124 VRB03KT P6SM SKC
     FM211000 27010KT P6SM OVC008
     FM212100 28015G25KT P6SM VCSH BKN018 OVC035=



000
FTUS46 KSEW 201700
TAFHQM
TAF
KHQM 201725Z 2018/2118 15003KT P6SM SKC
     FM202100 26010KT P6SM SKC
     FM210200 26010KT P6SM OVC008
     FM210900 28007KT 4SM BR OVC002=



000
FTUS46 KSEW 201700
TAFHQM
TAF
KHQM 201725Z 2018/2118 15003KT P6SM SKC
     FM202100 26010KT P6SM SKC
     FM210200 26010KT P6SM OVC008
     FM210900 28007KT 4SM BR OVC002=



000
FTUS46 KSEW 201700
TAFOLM
TAF
KOLM 201725Z 2018/2118 03006KT P6SM SKC
     FM210600 00000KT P6SM SCT250
     FM211100 20006KT P6SM OVC006=



000
FTUS46 KSEW 201700
TAFBFI
TAF
KBFI 201725Z 2018/2118 00000KT P6SM SKC
     FM202000 30006KT P6SM SKC
     FM211200 17005KT P6SM SCT008
      TEMPO 2112/2116 BKN008=



000
FTUS46 KSEW 201700
TAFBLI
TAF
KBLI 201725Z 2018/2118 18005KT P6SM SKC
     FM211200 17003KT P6SM SCT030 BKN080 OVC200=



000
FTUS46 KSEW 201700
TAFSEA
TAF
KSEA 201725Z 2018/2124 00000KT P6SM SKC
     FM202000 30006KT P6SM SKC
     FM211200 20007KT P6SM SCT005
      TEMPO 2112/2116 BKN005
     FM211800 22010KT P6SM VCSH SCT022 BKN040=



000
FTUS46 KSEW 201700
TAFCLM
TAF
KCLM 201725Z 2018/2118 08006KT P6SM SKC
     FM210000 26010KT P6SM BKN250
     FM211000 27010KT P6SM OVC008=



000
FTUS46 KSEW 201700
TAFPAE
TAF
KPAE 201725Z 2018/2118 31004KT P6SM SKC
     FM210400 02003KT P6SM SKC
     FM211200 19005KT P6SM BKN003
      TEMPO 2112/2116 2SM BR OVC003=



000
FTUS46 KSEW 201200 AAA
TAFHQM
TAF AMD
KHQM 201211Z 2012/2112 00000KT P6SM VCFG SKC
     FM201800 24007KT P6SM SKC
     FM202100 26010KT P6SM SKC
      TEMPO 2023/2103 BKN015
     FM210300 26010KT P6SM OVC008
     FM210900 28007KT 4SM BR OVC002=



000
FTUS46 KSEW 201200 AAA
TAFHQM
TAF AMD
KHQM 201211Z 2012/2112 00000KT P6SM VCFG SKC
     FM201800 24007KT P6SM SKC
     FM202100 26010KT P6SM SKC
      TEMPO 2023/2103 BKN015
     FM210300 26010KT P6SM OVC008
     FM210900 28007KT 4SM BR OVC002=



000
FTUS46 KSEW 201100
TAFCLM
TAF
KCLM 201120Z 2012/2112 26004KT P6SM FEW250
     FM201800 VRB04KT P6SM SKC
     FM210000 30010KT P6SM SKC
      TEMPO 2108/2112 BKN005=



000
FTUS46 KSEW 201100
TAFHQM
TAF
KHQM 201120Z 2012/2112 05004KT P6SM FEW250
     FM201800 24007KT P6SM SKC
     FM202100 26010KT P6SM SKC
      TEMPO 2023/2103 BKN015
     FM210300 26010KT P6SM OVC008
     FM210900 28007KT 4SM BR OVC002=



000
FTUS46 KSEW 201100
TAFPAE
TAF
KPAE 201120Z 2012/2112 01004KT P6SM FEW250
     FM201800 35006KT P6SM SKC
     FM210400 01004KT P6SM SKC=



000
FTUS46 KSEW 201100
TAFOLM
TAF
KOLM 201120Z 2012/2112 02003KT P6SM FEW250
     FM201800 01005KT P6SM SKC
      TEMPO 2109/2112 OVC004=



000
FTUS46 KSEW 201100
TAFBFI
TAF
KBFI 201120Z 2012/2112 00000KT P6SM FEW250
     FM201800 33008KT P6SM SKC
     FM210400 02004KT P6SM SKC=



000
FTUS46 KSEW 201100
TAFSEA
TAF
KSEA 201120Z 2012/2118 02005KT P6SM FEW250
     FM201800 36008KT P6SM SKC
     FM210400 02004KT P6SM SKC
      TEMPO 2112/2116 20007KT P6SM BKN005=



000
FTUS46 KSEW 201100
TAFBLI
TAF
KBLI 201120Z 2012/2112 00000KT P6SM FEW250
     FM201800 18005KT P6SM SKC=



000
FTUS46 KSEW 200900 AAA
TAFSEA
TAF AMD
KSEA 200904Z 2009/2112 04006KT P6SM FEW250
     FM201800 36010KT P6SM SKC=



000
FTUS46 KSEW 200500
TAFSEA
TAF
KSEA 200520Z 2006/2112 01010KT P6SM SCT250
     FM200900 03006KT P6SM FEW250
     FM201800 36010KT P6SM SKC=



000
FTUS46 KSEW 200500
TAFPAE
TAF
KPAE 200520Z 2006/2106 36005KT P6SM SCT250
     FM200900 01004KT P6SM FEW250
     FM201800 35006KT P6SM SKC=



000
FTUS46 KSEW 200500
TAFBFI
TAF
KBFI 200520Z 2006/2106 31004KT P6SM SCT250
     FM200900 00000KT P6SM FEW250
     FM201800 33008KT P6SM SKC=



000
FTUS46 KSEW 200500
TAFOLM
TAF
KOLM 200520Z 2006/2106 02004KT P6SM SCT250
     FM200900 02003KT P6SM FEW250
     FM201800 01005KT P6SM SKC=



000
FTUS46 KSEW 200500
TAFCLM
TAF
KCLM 200520Z 2006/2106 VRB04KT P6SM SCT250
     FM200900 VRB04KT P6SM SCT250
     FM202000 29006KT P6SM SKC=



000
FTUS46 KSEW 200500
TAFOLM
TAF
KOLM 200520Z 2006/2106 02004KT P6SM SCT250
     FM200900 02003KT P6SM FEW250
     FM201800 01005KT P6SM SKC=



000
FTUS46 KSEW 200500
TAFPAE
TAF
KPAE 200520Z 2006/2106 36005KT P6SM SCT250
     FM200900 01004KT P6SM FEW250
     FM201800 35006KT P6SM SKC=



000
FTUS46 KSEW 200500
TAFBLI
TAF
KBLI 200520Z 2006/2106 00000KT P6SM SCT250
     FM201800 18005KT P6SM SKC=



000
FTUS46 KSEW 200500
TAFSEA
TAF
KSEA 200520Z 2006/2112 01010KT P6SM SCT250
     FM200900 03006KT P6SM FEW250
     FM201800 36010KT P6SM SKC=



000
FTUS46 KSEW 200500
TAFHQM
TAF
KHQM 200520Z 2006/2106 24005KT 6SM BR SCT250
     FM200900 VRB04KT P6SM FEW250
     FM201800 24010KT P6SM SKC
     FM210300 26010KT P6SM BKN015=



000
FTUS46 KSEW 200500
TAFBFI
TAF
KBFI 200520Z 2006/2106 31004KT P6SM SCT250
     FM200900 00000KT P6SM FEW250
     FM201800 33008KT P6SM SKC=



000
FTUS46 KSEW 200500
TAFCLM
TAF
KCLM 200520Z 2006/2106 VRB04KT P6SM SCT250
     FM200900 VRB04KT P6SM SCT250
     FM202000 29006KT P6SM SKC=



000
FTUS46 KSEW 200500
TAFBLI
TAF
KBLI 200520Z 2006/2106 00000KT P6SM SCT250
     FM201800 18005KT P6SM SKC=



000
FTUS46 KSEW 200500
TAFHQM
TAF
KHQM 200520Z 2006/2106 24005KT 6SM BR SCT250
     FM200900 VRB04KT P6SM FEW250
     FM201800 24010KT P6SM SKC
     FM210300 26010KT P6SM BKN015=



000
FTUS46 KSEW 200300 AAA
TAFSEA
TAF AMD
KSEA 200307Z 2003/2106 36010KT P6SM SCT250
     FM200400 03006KT P6SM SKC
     FM201800 36010KT P6SM SCT250=



000
FTUS46 KSEW 192300
TAFCLM
TAF
KCLM 192320Z 2000/2024 VRB04KT P6SM SCT250=



000
FTUS46 KSEW 192300
TAFSEA
TAF
KSEA 192320Z 2000/2106 36010KT P6SM SCT250
     FM200400 03006KT P6SM SKC
     FM201800 36010KT P6SM SCT250=



000
FTUS46 KSEW 192300
TAFOLM
TAF
KOLM 192320Z 2000/2024 02007KT P6SM SCT250
     FM200400 02003KT P6SM SKC=



000
FTUS46 KSEW 192300
TAFBFI
TAF
KBFI 192320Z 2000/2024 31007KT P6SM SCT250
     FM200400 00000KT P6SM SKC=



000
FTUS46 KSEW 192300
TAFHQM
TAF
KHQM 192320Z 2000/2024 24010KT P6SM SKC
     FM200400 00000KT P6SM SKC=



000
FTUS46 KSEW 192300
TAFBLI
TAF
KBLI 192320Z 2000/2024 30005KT P6SM SCT250
     FM200400 VRB03KT P6SM SKC=



000
FTUS46 KSEW 192300
TAFPAE
TAF
KPAE 192320Z 2000/2024 36007KT P6SM SCT250
     FM200400 01004KT P6SM SKC=



000
FTUS46 KSEW 192100 AAA
TAFBFI
TAF AMD
KBFI 192112Z 1921/2018 31010KT P6SM SCT250
     FM200400 00000KT P6SM SKC=



000
FTUS46 KSEW 192100 AAA
TAFBFI
TAF AMD
KBFI 192112Z 1921/2018 31010KT P6SM SCT250
     FM200400 00000KT P6SM SKC=



000
FTUS46 KSEW 191700
TAFHQM
TAF
KHQM 191720Z 1918/2018 12004KT P6SM SCT250
     FM192100 24010KT P6SM SKC
     FM200400 00000KT P6SM SKC=



000
FTUS46 KSEW 191700
TAFOLM
TAF
KOLM 191720Z 1918/2018 02007KT P6SM SCT250
     FM200400 02003KT P6SM SKC=



000
FTUS46 KSEW 191700
TAFPAE
TAF
KPAE 191720Z 1918/2018 36007KT P6SM SCT250
     FM200400 01004KT P6SM SKC=



000
FTUS46 KSEW 191700
TAFHQM
TAF
KHQM 191720Z 1918/2018 12004KT P6SM SCT250
     FM192100 24010KT P6SM SKC
     FM200400 00000KT P6SM SKC=



000
FTUS46 KSEW 191700
TAFBLI
TAF
KBLI 191720Z 1918/2018 02005KT P6SM SCT250
     FM192100 30005KT P6SM SKC
     FM200400 VRB03KT P6SM SKC=



000
FTUS46 KSEW 191700
TAFBFI
TAF
KBFI 191720Z 1918/2018 34004KT P6SM SCT250
     FM200400 00000KT P6SM SKC=



000
FTUS46 KSEW 191700
TAFCLM
TAF
KCLM 191720Z 1918/2018 10007KT P6SM SCT250
     FM200000 25005KT P6SM SKC=



000
FTUS46 KSEW 191700
TAFBFI
TAF
KBFI 191720Z 1918/2018 34004KT P6SM SCT250
     FM200400 00000KT P6SM SKC=



000
FTUS46 KSEW 191700
TAFSEA
TAF
KSEA 191720Z 1918/2024 36010KT P6SM SCT250
     FM200400 03006KT P6SM SKC=



000
FTUS46 KSEW 191700
TAFPAE
TAF
KPAE 191720Z 1918/2018 36007KT P6SM SCT250
     FM200400 01004KT P6SM SKC=



000
FTUS46 KSEW 191700
TAFSEA
TAF
KSEA 191720Z 1918/2024 36010KT P6SM SCT250
     FM200400 03006KT P6SM SKC=



000
FTUS46 KSEW 191700
TAFBLI
TAF
KBLI 191720Z 1918/2018 02005KT P6SM SCT250
     FM192100 30005KT P6SM SKC
     FM200400 VRB03KT P6SM SKC=



000
FTUS46 KSEW 191700
TAFOLM
TAF
KOLM 191720Z 1918/2018 02007KT P6SM SCT250
     FM200400 02003KT P6SM SKC=



000
FTUS46 KSEW 191700
TAFCLM
TAF
KCLM 191720Z 1918/2018 10007KT P6SM SCT250
     FM200000 25005KT P6SM SKC=



000
FTUS46 KSEW 191300 AAA
TAFHQM
TAF AMD
KHQM 191352Z 1914/2012 08004KT P6SM SKC
     FM192100 24010KT P6SM SKC=



000
FTUS46 KSEW 191100
TAFOLM
TAF
KOLM 191120Z 1912/2012 02003KT P6SM SCT250
     FM191800 04008KT P6SM SKC
     FM200400 02003KT P6SM SKC=



000
FTUS46 KSEW 191100
TAFBFI
TAF
KBFI 191120Z 1912/2012 34004KT P6SM SCT250
     FM191800 33008KT P6SM SKC
     FM200400 00000KT P6SM SKC=



000
FTUS46 KSEW 191100
TAFCLM
TAF
KCLM 191120Z 1912/2012 23004KT P6SM SCT250
     FM191800 06006KT P6SM SKC
     FM200000 25005KT P6SM SKC=



000
FTUS46 KSEW 191100
TAFBLI
TAF
KBLI 191120Z 1912/2012 VRB04KT P6SM SCT250
     FM191800 30005KT P6SM SKC
     FM200400 VRB03KT P6SM SKC=



000
FTUS46 KSEW 191100
TAFSEA
TAF
KSEA 191120Z 1912/2018 02005KT P6SM SCT250
     FM191800 35010KT P6SM SKC
     FM200400 02008KT P6SM SKC=



000
FTUS46 KSEW 191100
TAFPAE
TAF
KPAE 191120Z 1912/2012 01004KT P6SM SCT250
     FM191800 35007KT P6SM SKC
     FM200400 01004KT P6SM SKC=



000
FTUS46 KSEW 191100
TAFBLI
TAF
KBLI 191120Z 1912/2012 VRB04KT P6SM SCT250
     FM191800 30005KT P6SM SKC
     FM200400 VRB03KT P6SM SKC=



000
FTUS46 KSEW 191100
TAFCLM
TAF
KCLM 191120Z 1912/2012 23004KT P6SM SCT250
     FM191800 06006KT P6SM SKC
     FM200000 25005KT P6SM SKC=



000
FTUS46 KSEW 191100
TAFHQM
TAF
KHQM 191120Z 1912/2012 03005KT 6SM BR SCT250
      TEMPO 1912/1915 BKN002
     FM191800 05006KT P6SM SKC
     FM192100 24010KT P6SM SKC=



000
FTUS46 KSEW 191100
TAFBFI
TAF
KBFI 191120Z 1912/2012 34004KT P6SM SCT250
     FM191800 33008KT P6SM SKC
     FM200400 00000KT P6SM SKC=



000
FTUS46 KSEW 191100
TAFHQM
TAF
KHQM 191120Z 1912/2012 03005KT 6SM BR SCT250
      TEMPO 1912/1915 BKN002
     FM191800 05006KT P6SM SKC
     FM192100 24010KT P6SM SKC=



000
FTUS46 KSEW 191100
TAFOLM
TAF
KOLM 191120Z 1912/2012 02003KT P6SM SCT250
     FM191800 04008KT P6SM SKC
     FM200400 02003KT P6SM SKC=



000
FTUS46 KSEW 191100
TAFSEA
TAF
KSEA 191120Z 1912/2018 02005KT P6SM SCT250
     FM191800 35010KT P6SM SKC
     FM200400 02008KT P6SM SKC=



000
FTUS46 KSEW 190900 AAA
TAFSEA
TAF AMD
KSEA 190900Z 1909/2012 02009KT P6SM SCT250
     FM191800 35009KT P6SM SKC
     FM200400 02008KT P6SM SKC=



000
FTUS46 KSEW 190900 AAA
TAFSEA
TAF AMD
KSEA 190900Z 1909/2012 02009KT P6SM SCT250
     FM191800 35009KT P6SM SKC
     FM200400 02008KT P6SM SKC=



000
FTUS46 KSEW 190500
TAFSEA
TAF
KSEA 190530Z 1906/2012 02009KT P6SM SCT250
     FM191800 35009KT P6SM SKC
     FM200400 02008KT P6SM SKC=



000
FTUS46 KSEW 190500
TAFHQM
TAF
KHQM 190530Z 1906/2006 03005KT 6SM BR SCT250
     FM191800 05006KT P6SM SKC
     FM192100 24010KT P6SM SKC=



000
FTUS46 KSEW 190500
TAFBLI
TAF
KBLI 190530Z 1906/2006 VRB04KT P6SM SCT250=



000
FTUS46 KSEW 190500
TAFCLM
TAF
KCLM 190530Z 1906/2006 VRB04KT P6SM SCT250=



000
FTUS46 KSEW 190500
TAFPAE
TAF
KPAE 190530Z 1906/2006 02006KT P6SM SCT250
     FM191800 35007KT P6SM SKC=



000
FTUS46 KSEW 190500
TAFOLM
TAF
KOLM 190530Z 1906/2006 02005KT P6SM SCT250
     FM191800 04008KT P6SM SKC=



000
FTUS46 KSEW 190500
TAFBFI
TAF
KBFI 190530Z 1906/2006 34004KT P6SM SCT250
     FM191800 33008KT P6SM SKC=



000
FTUS46 KSEW 182300
TAFOLM
TAF
KOLM 182320Z 1900/1924 35010KT P6SM SCT250
     FM190400 00000KT P6SM SCT250=



000
FTUS46 KSEW 182300
TAFCLM
TAF
KCLM 182320Z 1900/1924 VRB04KT P6SM SCT250=



000
FTUS46 KSEW 182300
TAFSEA
TAF
KSEA 182320Z 1900/2006 36010KT P6SM SCT250
     FM190600 04006KT P6SM SCT250
     FM191800 35008KT P6SM SKC=



000
FTUS46 KSEW 182300
TAFHQM
TAF
KHQM 182320Z 1900/1924 27008KT P6SM SCT250
     FM190600 VRB04KT P6SM SCT250=



000
FTUS46 KSEW 182300
TAFPAE
TAF
KPAE 182320Z 1900/1924 36008KT P6SM SCT250
     FM190600 03006KT P6SM SCT250=



000
FTUS46 KSEW 182300
TAFBLI
TAF
KBLI 182320Z 1900/1924 26008KT P6SM SCT250
     FM190600 VRB04KT P6SM SCT250=



000
FTUS46 KSEW 182300
TAFBFI
TAF
KBFI 182320Z 1900/1924 33006KT P6SM SCT250
     FM190600 VRB03KT P6SM SCT250=



000
FTUS46 KSEW 181800 RRA
TAFHQM
TAF
KHQM 181822Z 1818/1918 VRB04KT P6SM SKC
     FM182100 25012KT P6SM SKC
     FM190400 34004KT P6SM SCT250=



000
FTUS46 KSEW 181800 RRA
TAFOLM
TAF
KOLM 181822Z 1818/1918 03008KT P6SM SKC
     FM190400 00000KT P6SM SCT250=



000
FTUS46 KSEW 181800 RRA
TAFCLM
TAF
KCLM 181822Z 1818/1918 08006KT P6SM SKC
     FM190000 28006KT P6SM SCT250=



000
FTUS46 KSEW 181800 RRA
TAFPAE
TAF
KPAE 181821Z 1818/1918 35010KT P6SM SKC
     FM190400 01006KT P6SM SCT250=



000
FTUS46 KSEW 181800 RRA
TAFBFI
TAF
KBFI 181821Z 1818/1918 33008KT P6SM SKC
     FM190400 00000KT P6SM SCT250=



000
FTUS46 KSEW 181800 RRA
TAFBLI
TAF
KBLI 181821Z 1818/1918 33007KT P6SM SKC
     FM190400 VRB04KT P6SM SCT250=



000
FTUS46 KSEW 181800 RRA
TAFSEA
TAF
KSEA 181820Z 1818/1924 34010KT P6SM SKC
     FM190400 02007KT P6SM SCT250=



000
FTUS46 KSEW 181400 AAA
TAFHQM
TAF AMD
KHQM 181417Z 1814/1912 04004KT 5SM BR SKC
      TEMPO 1814/1816 2SM BR
     FM181600 09006KT P6SM SKC
     FM182100 25012KT P6SM SKC
     FM190000 34004KT P6SM SCT250=



000
FTUS46 KSEW 181400 AAA
TAFHQM
TAF AMD
KHQM 181417Z 1814/1912 04004KT 5SM BR SKC
      TEMPO 1814/1816 2SM BR
     FM181600 09006KT P6SM SKC
     FM182100 25012KT P6SM SKC
     FM190000 34004KT P6SM SCT250=



000
FTUS46 KSEW 181100
TAFPAE
TAF
KPAE 181120Z 1812/1912 01007KT P6SM SKC
     FM181500 34008KT P6SM SKC
     FM182100 35011KT P6SM SKC
     FM190400 01006KT P6SM SCT250=



000
FTUS46 KSEW 181100
TAFBFI
TAF
KBFI 181120Z 1812/1912 33003KT P6SM SKC
     FM181500 34007KT P6SM SKC
     FM182100 35009KT P6SM SKC
     FM190400 00000KT P6SM SCT250=



000
FTUS46 KSEW 181100
TAFOLM
TAF
KOLM 181120Z 1812/1912 01004KT P6SM SKC
      TEMPO 1812/1816 1/2SM FG VV001
     FM181700 01006KT P6SM SKC
     FM190400 00000KT P6SM SCT250=



000
FTUS46 KSEW 181100
TAFPAE
TAF
KPAE 181120Z 1812/1912 01007KT P6SM SKC
     FM181500 34008KT P6SM SKC
     FM182100 35011KT P6SM SKC
     FM190400 01006KT P6SM SCT250=



000
FTUS46 KSEW 181100
TAFSEA
TAF
KSEA 181120Z 1812/1918 02005KT P6SM SKC
     FM181500 34008KT P6SM SKC
     FM182100 35011KT P6SM SKC
     FM190400 02007KT P6SM SCT250=



000
FTUS46 KSEW 181100
TAFBFI
TAF
KBFI 181120Z 1812/1912 33003KT P6SM SKC
     FM181500 34007KT P6SM SKC
     FM182100 35009KT P6SM SKC
     FM190400 00000KT P6SM SCT250=



000
FTUS46 KSEW 181100
TAFOLM
TAF
KOLM 181120Z 1812/1912 01004KT P6SM SKC
      TEMPO 1812/1816 1/2SM FG VV001
     FM181700 01006KT P6SM SKC
     FM190400 00000KT P6SM SCT250=



000
FTUS46 KSEW 181100
TAFSEA
TAF
KSEA 181120Z 1812/1918 02005KT P6SM SKC
     FM181500 34008KT P6SM SKC
     FM182100 35011KT P6SM SKC
     FM190400 02007KT P6SM SCT250=



000
FTUS46 KSEW 181100
TAFCLM
TAF
KCLM 181120Z 1812/1912 VRB04KT P6SM SKC
     FM181700 05004KT P6SM SKC
     FM190000 28006KT P6SM SCT250=



000
FTUS46 KSEW 181100
TAFHQM
TAF
KHQM 181120Z 1812/1912 04004KT 5SM BR SKC
     FM181600 09006KT P6SM SKC
     FM182100 25012KT P6SM SKC
     FM190000 34004KT P6SM SCT250=



000
FTUS46 KSEW 181100
TAFCLM
TAF
KCLM 181120Z 1812/1912 VRB04KT P6SM SKC
     FM181700 05004KT P6SM SKC
     FM190000 28006KT P6SM SCT250=



000
FTUS46 KSEW 181100
TAFBLI
TAF
KBLI 181120Z 1812/1912 36004KT P6SM SKC
     FM182000 28005KT P6SM SKC
     FM190000 VRB04KT P6SM SCT250=



000
FTUS46 KSEW 181100
TAFBLI
TAF
KBLI 181120Z 1812/1912 36004KT P6SM SKC
     FM182000 28005KT P6SM SKC
     FM190000 VRB04KT P6SM SCT250=



000
FTUS46 KSEW 180900 AAA
TAFSEA
TAF AMD
KSEA 180901Z 1809/1912 02005KT P6SM SKC
     FM181500 34008KT P6SM SKC
     FM182100 35011KT P6SM SKC=



    US Dept of Commerce
    National Oceanic and Atmospheric Administration
    National Weather Service
    1325 East West Highway
    Silver Spring, MD 20910
    Page Author: NWS Internet Services Team
Disclaimer
Information Quality
Credits
Glossary
Privacy Policy
Freedom of Information Act (FOIA)
About Us
Career Opportunities